Time;durP1;ratioP1;P1;durP2;ratioP2;P2;SDS_P1;SDS_P2;PMS_P1;PMS_P2;Temp;Humidity;BMP_temperature;BMP_pressure;BME280_temperature;BME280_humidity;BME280_pressure;Samples;Min_cycle;Max_cycle;Signal;HPM_P1;HPM_P2
2021/07/05 00:02:15;;;;;;;8.83;7.60;;;;;;;25.84;69.42;98943.86;1780659;80;21929;-68
2021/07/05 00:04:42;;;;;;;8.33;7.53;;;;;;;25.82;69.43;98952.30;1780931;79;21521;-69
2021/07/05 00:07:10;;;;;;;8.38;6.92;;;;;;;25.81;69.46;98949.89;1804391;79;21096;-69
2021/07/05 00:09:37;;;;;;;10.90;7.12;;;;;;;25.79;69.54;98953.45;1797061;79;21525;-68
2021/07/05 00:12:05;;;;;;;7.65;6.53;;;;;;;25.78;69.60;98958.05;1767714;79;21588;-70
2021/07/05 00:14:32;;;;;;;9.58;7.03;;;;;;;25.76;69.61;98961.62;1780493;79;23308;-69
2021/07/05 00:16:58;;;;;;;7.35;6.75;;;;;;;25.76;69.63;98959.45;1780521;80;21002;-68
2021/07/05 00:19:24;;;;;;;8.70;7.58;;;;;;;25.77;69.63;98959.70;1801382;79;21006;-69
2021/07/05 00:21:52;;;;;;;8.43;7.55;;;;;;;25.84;69.42;98960.18;1780486;80;21011;-69
2021/07/05 00:24:20;;;;;;;7.65;6.70;;;;;;;25.82;69.37;98950.94;1780513;80;21010;-70
2021/07/05 00:26:47;;;;;;;8.15;6.95;;;;;;;25.79;69.39;98959.69;1780434;79;21138;-68
2021/07/05 00:29:14;;;;;;;9.75;6.58;;;;;;;25.78;69.36;98952.62;1801473;79;21110;-69
2021/07/05 00:31:40;;;;;;;12.82;7.00;;;;;;;25.77;69.30;98955.09;1780435;80;21574;-69
2021/07/05 00:34:06;;;;;;;8.55;7.05;;;;;;;25.76;69.21;98959.45;1780507;80;21046;-68
2021/07/05 00:36:34;;;;;;;8.05;7.30;;;;;;;25.74;69.19;98958.38;1780572;80;21022;-69
2021/07/05 00:39:01;;;;;;;6.85;6.17;;;;;;;25.72;69.18;98956.49;1780855;79;21485;-70
2021/07/05 00:41:29;;;;;;;7.70;6.75;;;;;;;25.70;69.15;98956.77;1809039;79;21352;-70
2021/07/05 00:43:57;;;;;;;8.05;6.97;;;;;;;25.67;69.11;98953.28;1793443;79;21034;-69
2021/07/05 00:46:24;;;;;;;8.95;6.55;;;;;;;25.64;69.14;98949.77;1780622;80;21057;-69
2021/07/05 00:48:51;;;;;;;10.25;6.50;;;;;;;25.65;69.09;98953.29;1780633;80;21069;-70
2021/07/05 00:51:18;;;;;;;10.80;6.83;;;;;;;25.70;68.90;98950.53;1780573;80;21137;-70
2021/07/05 00:53:48;;;;;;;8.20;6.72;;;;;;;25.70;68.83;98939.09;1780807;80;21057;-69
2021/07/05 00:56:16;;;;;;;8.03;6.97;;;;;;;25.67;68.91;98931.53;1801575;79;21572;-69
2021/07/05 00:58:43;;;;;;;9.75;7.17;;;;;;;25.64;68.95;98928.01;1780589;80;21065;-69
2021/07/05 01:01:09;;;;;;;7.45;6.75;;;;;;;25.63;68.97;98928.29;1780814;80;21033;-70
2021/07/05 01:03:35;;;;;;;8.70;7.12;;;;;;;25.61;69.03;98931.84;1780689;79;21978;-70
2021/07/05 01:06:01;;;;;;;8.63;6.35;;;;;;;25.60;69.04;98931.05;1781213;79;21292;-69
2021/07/05 01:08:28;;;;;;;8.03;6.95;;;;;;;25.59;69.07;98925.89;1800767;79;21084;-70
2021/07/05 01:10:54;;;;;;;7.85;7.12;;;;;;;25.58;69.13;98933.24;1770177;79;21081;-69
2021/07/05 01:13:20;;;;;;;7.95;7.15;;;;;;;25.57;69.16;98932.16;1780677;80;21088;-69
2021/07/05 01:15:47;;;;;;;8.98;6.58;;;;;;;25.56;69.23;98936.00;1780568;79;21041;-69
2021/07/05 01:18:14;;;;;;;9.15;6.53;;;;;;;25.55;69.23;98934.36;1795195;79;22105;-68
2021/07/05 01:20:41;;;;;;;11.08;7.03;;;;;;;25.56;69.25;98936.80;1786728;79;21014;-69
2021/07/05 01:23:10;;;;;;;9.48;6.97;;;;;;;25.62;69.03;98929.41;1792774;79;20993;-69
2021/07/05 01:25:39;;;;;;;10.18;7.12;;;;;;;25.61;69.04;98928.60;1788343;78;21592;-69
2021/07/05 01:28:06;;;;;;;10.70;7.17;;;;;;;25.60;69.04;98932.97;1791441;79;21155;-69
2021/07/05 01:30:33;;;;;;;7.22;6.60;;;;;;;25.57;69.03;98923.45;1790863;79;21046;-70
2021/07/05 01:33:05;;;;;;;7.47;6.78;;;;;;;25.54;69.00;98926.76;1780619;80;20991;-69
2021/07/05 01:35:32;;;;;;;13.15;7.05;;;;;;;25.53;68.99;98927.05;1780835;80;21022;-69
2021/07/05 01:37:59;;;;;;;9.83;8.00;;;;;;;25.50;69.00;98933.31;1780673;79;21082;-70
2021/07/05 01:40:26;;;;;;;8.05;7.25;;;;;;;25.46;69.05;98921.95;1785185;79;21126;-69
2021/07/05 01:42:55;;;;;;;10.05;7.30;;;;;;;25.47;69.07;98933.08;1757656;79;21040;-70
2021/07/05 01:45:25;;;;;;;9.23;8.30;;;;;;;25.44;69.05;98933.11;1762934;79;21038;-68
2021/07/05 01:47:52;;;;;;;10.15;8.35;;;;;;;25.43;69.04;98933.38;1751585;79;21080;-68
2021/07/05 01:50:19;;;;;;;8.08;7.33;;;;;;;25.42;69.09;98941.27;1752420;79;21553;-69
2021/07/05 01:52:48;;;;;;;10.08;6.95;;;;;;;25.43;69.02;98941.55;1738703;79;21133;-69
2021/07/05 01:55:14;;;;;;;9.00;7.25;;;;;;;25.46;68.85;98949.14;1764255;80;21022;-70
2021/07/05 01:57:41;;;;;;;8.60;6.80;;;;;;;25.44;68.86;98946.70;1742424;79;21033;-69
2021/07/05 02:00:15;;;;;;;7.22;6.50;;;;;;;25.43;68.82;98955.94;1760413;80;21061;-69
2021/07/05 02:02:42;;;;;;;7.47;6.78;;;;;;;25.42;68.77;98956.22;1744248;79;21065;-69
2021/07/05 02:05:12;;;;;;;8.95;7.70;;;;;;;25.40;68.72;98963.32;1738863;79;21134;-69
2021/07/05 02:07:39;;;;;;;9.85;7.25;;;;;;;25.40;68.71;98967.92;1768304;79;21073;-68
2021/07/05 02:10:09;;;;;;;9.40;7.72;;;;;;;25.38;68.80;98963.33;1739192;79;21049;-68
2021/07/05 02:12:36;;;;;;;7.37;6.62;;;;;;;25.36;68.83;98969.04;1738848;79;21053;-69
2021/07/05 02:15:06;;;;;;;9.83;7.72;;;;;;;25.33;68.90;98967.46;1753426;79;21029;-69
2021/07/05 02:17:35;;;;;;;8.08;7.17;;;;;;;25.31;68.97;98973.18;1760563;80;21096;-68
2021/07/05 02:20:03;;;;;;;9.65;7.65;;;;;;;25.29;68.98;98966.66;1768522;79;21541;-68
2021/07/05 02:22:30;;;;;;;9.55;7.37;;;;;;;25.31;68.91;98970.46;1738955;79;21067;-69
2021/07/05 02:24:56;;;;;;;7.87;7.17;;;;;;;25.37;68.70;98969.31;1768594;79;21041;-68
2021/07/05 02:27:25;;;;;;;8.68;7.70;;;;;;;25.35;68.67;98974.23;1759786;79;21033;-68
2021/07/05 02:29:52;;;;;;;7.83;7.15;;;;;;;25.34;68.70;98973.14;1751201;79;21914;-66
2021/07/05 02:32:18;;;;;;;17.35;15.55;;;;;;;25.31;68.78;98982.14;1762844;79;21370;-70
2021/07/05 02:34:45;;;;;;;34.85;31.30;;;;;;;25.29;68.83;98982.16;1769561;79;21460;-69
2021/07/05 02:37:13;;;;;;;22.30;19.82;;;;;;;25.28;68.86;98980.00;1766217;79;21002;-69
2021/07/05 02:39:40;;;;;;;16.42;13.93;;;;;;;25.27;68.91;98982.44;1766346;80;21541;-69
2021/07/05 02:42:07;;;;;;;12.68;10.90;;;;;;;25.25;68.94;98979.20;1780638;79;21205;-69
2021/07/05 02:44:33;;;;;;;10.93;9.90;;;;;;;25.25;69.02;98979.75;1756714;79;21204;-70
2021/07/05 02:47:00;;;;;;;9.53;8.63;;;;;;;25.23;69.15;98977.88;1768266;79;21659;-69
2021/07/05 02:49:26;;;;;;;9.73;7.33;;;;;;;25.21;69.24;98974.59;1740815;79;21084;-69
2021/07/05 02:51:52;;;;;;;8.35;7.50;;;;;;;25.23;69.31;98972.44;1769271;79;21062;-70
2021/07/05 02:54:19;;;;;;;8.15;7.00;;;;;;;25.29;69.11;98978.89;1766573;79;21139;-69
2021/07/05 02:56:45;;;;;;;7.70;6.92;;;;;;;25.28;69.17;98980.53;1765699;80;21471;-68
2021/07/05 02:59:12;;;;;;;17.60;15.32;;;;;;;25.25;69.29;98981.11;1751173;79;21101;-68
2021/07/05 03:01:38;;;;;;;17.45;13.60;;;;;;;25.25;69.37;98986.55;1780739;80;21022;-69
2021/07/05 03:04:04;;;;;;;12.37;9.68;;;;;;;25.24;69.40;98985.72;1744949;79;21056;-70
2021/07/05 03:06:30;;;;;;;12.37;9.18;;;;;;;25.23;69.49;98977.88;1757840;79;21098;-69
2021/07/05 03:08:57;;;;;;;9.58;8.63;;;;;;;25.21;69.57;98984.91;1751189;79;21081;-70
2021/07/05 03:11:23;;;;;;;10.75;7.97;;;;;;;25.19;69.72;98983.55;1765321;79;21017;-70
2021/07/05 03:13:51;;;;;;;12.00;7.75;;;;;;;25.18;69.84;98992.26;1738742;79;21508;-69
2021/07/05 03:16:18;;;;;;;8.10;7.05;;;;;;;25.15;69.97;98980.61;1779866;79;21096;-69
2021/07/05 03:18:44;;;;;;;8.93;6.28;;;;;;;25.22;69.99;98988.43;1780530;79;21141;-69
2021/07/05 03:21:11;;;;;;;8.05;6.80;;;;;;;25.29;69.69;98988.41;1743096;79;21501;-70
2021/07/05 03:23:38;;;;;;;8.88;7.95;;;;;;;25.28;69.61;98985.97;1738762;79;21036;-69
2021/07/05 03:26:04;;;;;;;9.03;7.55;;;;;;;25.28;69.64;98982.72;1772399;79;21777;-68
2021/07/05 03:28:31;;;;;;;7.70;7.00;;;;;;;25.28;69.66;98990.05;1763260;79;21017;-69
2021/07/05 03:30:58;;;;;;;9.65;7.17;;;;;;;25.27;69.67;98983.00;1768122;79;21219;-70
2021/07/05 03:33:24;;;;;;;9.05;7.37;;;;;;;25.25;69.65;98987.36;1738909;79;21084;-69
2021/07/05 03:35:51;;;;;;;10.80;7.83;;;;;;;25.25;69.75;98983.83;1738997;79;21028;-68
2021/07/05 03:38:20;;;;;;;7.58;6.97;;;;;;;25.22;69.84;98981.11;1748352;79;21049;-69
2021/07/05 03:40:48;;;;;;;7.42;6.72;;;;;;;25.20;69.92;98976.48;1780684;79;21003;-69
2021/07/05 03:43:15;;;;;;;9.13;7.03;;;;;;;25.20;69.96;98979.20;1751031;79;21542;-70
2021/07/05 03:45:43;;;;;;;7.67;6.60;;;;;;;25.19;70.00;98974.88;1759932;79;21043;-69
2021/07/05 03:48:10;;;;;;;9.48;6.72;;;;;;;25.22;70.04;98968.88;1742692;79;21021;-69
2021/07/05 03:50:37;;;;;;;7.12;6.30;;;;;;;25.29;69.82;98968.02;1780318;79;21081;-68
2021/07/05 03:53:03;;;;;;;9.98;6.65;;;;;;;25.31;69.78;98971.82;1782747;79;21175;-69
2021/07/05 03:55:30;;;;;;;8.45;7.15;;;;;;;25.31;69.72;98968.55;1751604;79;21208;-69
2021/07/05 03:57:58;;;;;;;7.78;7.15;;;;;;;25.31;69.77;98973.98;1744214;79;21021;-68
2021/07/05 04:00:29;;;;;;;11.08;7.30;;;;;;;25.32;69.72;98973.42;1773660;79;21033;-68
2021/07/05 04:02:55;;;;;;;7.35;6.75;;;;;;;25.31;69.64;98972.63;1760209;80;21081;-69
2021/07/05 04:05:22;;;;;;;7.67;7.08;;;;;;;25.30;69.61;98972.37;1757523;79;21107;-69
2021/07/05 04:07:48;;;;;;;7.45;6.75;;;;;;;25.29;69.63;98972.66;1773966;79;21068;-70
2021/07/05 04:10:15;;;;;;;7.67;6.97;;;;;;;25.29;69.63;98966.66;1744210;79;21047;-70
2021/07/05 04:12:42;;;;;;;7.92;7.15;;;;;;;25.28;69.62;98969.12;1744232;79;21028;-68
2021/07/05 04:15:10;;;;;;;11.12;8.33;;;;;;;25.28;69.55;98969.66;1766140;79;21021;-69
2021/07/05 04:17:37;;;;;;;11.70;8.75;;;;;;;25.31;69.59;98963.11;1786076;79;21041;-69
2021/07/05 04:20:10;;;;;;;8.85;7.95;;;;;;;25.41;69.28;98968.20;1768337;79;21119;-69
2021/07/05 04:22:36;;;;;;;8.23;7.42;;;;;;;25.41;69.23;98966.84;1773638;79;21073;-69
2021/07/05 04:25:05;;;;;;;7.40;6.70;;;;;;;25.40;69.26;98962.48;1760489;80;21058;-69
2021/07/05 04:27:32;;;;;;;8.75;7.87;;;;;;;25.43;69.30;98966.02;1756910;79;21621;-68
2021/07/05 04:29:58;;;;;;;11.30;7.47;;;;;;;25.44;69.19;98963.02;1773395;79;21056;-69
2021/07/05 04:32:25;;;;;;;7.58;6.97;;;;;;;25.45;69.10;98957.82;1744404;79;21064;-70
2021/07/05 04:34:51;;;;;;;8.50;7.80;;;;;;;25.47;69.16;98965.14;1782923;79;20990;-70
2021/07/05 04:37:18;;;;;;;7.83;6.95;;;;;;;25.47;69.20;98965.70;1786279;79;21064;-70
2021/07/05 04:39:44;;;;;;;8.00;7.22;;;;;;;25.47;69.20;98960.27;1780711;79;21095;-71
2021/07/05 04:42:11;;;;;;;8.05;7.35;;;;;;;25.51;69.20;98972.19;1744411;79;21040;-69
2021/07/05 04:44:37;;;;;;;8.45;7.53;;;;;;;25.53;69.23;98967.27;1745888;79;20994;-69
2021/07/05 04:47:04;;;;;;;8.45;7.65;;;;;;;25.55;69.22;98981.39;1771910;79;21008;-69
2021/07/05 04:49:30;;;;;;;7.62;6.95;;;;;;;25.58;69.18;98990.91;1744506;79;21576;-69
2021/07/05 04:51:56;;;;;;;8.48;7.05;;;;;;;25.66;68.86;98987.01;1773832;79;21585;-70
2021/07/05 04:54:23;;;;;;;8.85;7.95;;;;;;;25.67;68.83;98982.38;1754904;80;21038;-69
2021/07/05 04:56:51;;;;;;;8.45;7.47;;;;;;;25.69;68.88;98981.53;1780609;79;21014;-68
2021/07/05 04:59:17;;;;;;;8.75;8.03;;;;;;;25.69;68.85;98983.73;1751155;79;21018;-69
2021/07/05 05:01:46;;;;;;;8.63;7.83;;;;;;;25.71;68.80;98978.01;1780737;79;21011;-69
2021/07/05 05:04:14;;;;;;;9.93;8.98;;;;;;;25.72;68.78;98973.37;1742013;79;21044;-69
2021/07/05 05:06:43;;;;;;;9.20;8.40;;;;;;;25.72;68.79;98970.66;1738927;79;21583;-69
2021/07/05 05:09:09;;;;;;;8.80;7.83;;;;;;;25.72;68.71;98978.25;1739106;79;21821;-69
2021/07/05 05:11:38;;;;;;;9.50;8.18;;;;;;;25.74;68.63;98986.13;1738749;79;21568;-69
2021/07/05 05:14:04;;;;;;;8.15;7.22;;;;;;;25.74;68.70;98984.22;1770731;79;21154;-70
2021/07/05 05:16:31;;;;;;;8.95;8.13;;;;;;;25.74;68.70;98988.30;1780867;79;21022;-69
2021/07/05 05:18:58;;;;;;;8.43;7.47;;;;;;;25.75;68.81;98981.77;1752248;79;21123;-69
2021/07/05 05:21:25;;;;;;;11.12;7.60;;;;;;;25.80;68.78;98985.78;1750840;79;21334;-68
2021/07/05 05:23:51;;;;;;;9.70;7.85;;;;;;;25.89;68.53;98978.63;1780617;80;21053;-70
2021/07/05 05:26:18;;;;;;;10.18;7.22;;;;;;;25.90;68.50;98973.98;1780660;79;21562;-69
2021/07/05 05:28:45;;;;;;;8.63;7.75;;;;;;;25.90;68.51;98972.09;1780573;79;21014;-70
2021/07/05 05:31:12;;;;;;;9.25;8.35;;;;;;;25.93;68.57;98971.29;1751200;79;22124;-69
2021/07/05 05:33:38;;;;;;;11.03;9.23;;;;;;;25.95;68.65;98971.81;1780534;80;21122;-70
2021/07/05 05:36:04;;;;;;;9.35;8.28;;;;;;;25.96;68.72;98977.50;1779741;79;21014;-70
2021/07/05 05:38:31;;;;;;;11.20;9.13;;;;;;;25.96;68.82;98976.97;1738815;79;21025;-69
2021/07/05 05:40:57;;;;;;;9.23;8.25;;;;;;;25.97;68.78;98971.77;1765170;80;21742;-69
2021/07/05 05:43:23;;;;;;;9.43;8.63;;;;;;;25.98;68.67;98980.22;1771180;79;21115;-69
2021/07/05 05:45:50;;;;;;;9.88;8.20;;;;;;;25.98;68.56;98978.85;1761353;79;21143;-69
2021/07/05 05:48:16;;;;;;;9.68;8.78;;;;;;;26.00;68.55;98983.45;1780538;79;21129;-70
2021/07/05 05:50:42;;;;;;;8.90;8.00;;;;;;;26.02;68.40;98994.03;1780567;79;21514;-70
2021/07/05 05:53:08;;;;;;;11.50;8.75;;;;;;;26.03;68.35;98995.11;1780462;80;21034;-69
2021/07/05 05:55:35;;;;;;;8.80;7.60;;;;;;;26.03;68.36;98991.02;1774165;79;21060;-69
2021/07/05 05:58:01;;;;;;;10.15;9.18;;;;;;;26.09;68.38;98986.34;1758138;79;21046;-69
2021/07/05 06:00:28;;;;;;;10.15;7.90;;;;;;;26.18;68.17;98984.61;1778213;79;20994;-70
2021/07/05 06:02:54;;;;;;;10.80;8.65;;;;;;;26.20;68.10;98984.33;1738857;79;21036;-70
2021/07/05 06:05:21;;;;;;;9.00;8.08;;;;;;;26.22;68.01;98982.13;1767255;79;21022;-71
2021/07/05 06:07:50;;;;;;;9.90;8.78;;;;;;;26.23;67.96;98984.56;1739146;79;21096;-69
2021/07/05 06:10:19;;;;;;;9.63;8.83;;;;;;;26.24;67.93;98984.80;1738810;79;22341;-67
2021/07/05 06:12:47;;;;;;;10.15;8.55;;;;;;;26.26;67.87;98982.60;1748287;79;21021;-68
2021/07/05 06:15:14;;;;;;;9.85;8.85;;;;;;;26.28;67.77;98971.43;1757947;79;21013;-70
2021/07/05 06:17:40;;;;;;;8.83;8.15;;;;;;;26.31;67.72;98976.83;1768283;79;21088;-69
2021/07/05 06:20:09;;;;;;;9.33;8.43;;;;;;;26.33;67.75;98969.19;1757878;80;20982;-71
2021/07/05 06:22:56;;;;;;;9.53;8.63;;;;;;;26.36;67.80;98961.80;1780674;79;21122;-69
2021/07/05 06:25:19;;;;;;;10.10;8.85;;;;;;;26.38;67.82;98960.96;1759855;79;21049;-69
2021/07/05 06:27:45;;;;;;;9.48;8.55;;;;;;;26.41;67.93;98961.19;1742697;79;21053;-69
2021/07/05 06:30:12;;;;;;;9.08;8.28;;;;;;;26.44;68.05;98957.06;1750424;80;21006;-69
2021/07/05 06:32:39;;;;;;;10.23;7.97;;;;;;;26.47;67.94;98957.86;1739037;79;21096;-71
2021/07/05 06:35:06;;;;;;;9.38;8.03;;;;;;;26.55;67.75;98958.56;1780594;79;21051;-68
2021/07/05 06:37:33;;;;;;;8.20;7.58;;;;;;;26.63;67.43;98956.56;1754387;79;21013;-69
2021/07/05 06:39:59;;;;;;;8.98;8.13;;;;;;;26.67;67.30;98954.88;1738837;79;21009;-70
2021/07/05 06:42:25;;;;;;;8.90;7.95;;;;;;;26.71;67.28;98974.73;1761260;79;21784;-70
2021/07/05 06:44:53;;;;;;;9.33;8.48;;;;;;;26.73;67.32;98977.41;1774220;79;21485;-71
2021/07/05 06:47:22;;;;;;;9.35;8.43;;;;;;;26.75;67.33;98976.56;1738866;79;21041;-71
2021/07/05 06:49:48;;;;;;;8.90;8.20;;;;;;;26.78;67.32;98970.54;1770910;79;21042;-69
2021/07/05 06:52:14;;;;;;;8.88;8.08;;;;;;;26.82;67.36;98978.38;1773563;79;21061;-69
2021/07/05 06:54:40;;;;;;;9.03;8.20;;;;;;;26.85;67.25;98972.35;1750136;79;21091;-70
2021/07/05 06:57:28;;;;;;;9.15;8.33;;;;;;;26.88;67.12;98971.74;1757895;79;21024;-71
2021/07/05 06:59:35;;;;;;;12.93;8.95;;;;;;;26.92;66.96;98965.72;1783692;80;21175;-69
2021/07/05 07:02:03;;;;;;;12.82;9.30;;;;;;;26.93;66.85;98970.08;1786168;79;21838;-70
2021/07/05 07:04:29;;;;;;;11.10;8.68;;;;;;;26.95;66.64;98969.23;1765369;80;20994;-69
2021/07/05 07:06:57;;;;;;;8.95;8.20;;;;;;;26.97;66.58;98962.92;1786343;79;21006;-69
2021/07/05 07:09:25;;;;;;;9.28;8.45;;;;;;;26.99;66.54;98966.16;1756766;79;21096;-70
2021/07/05 07:11:51;;;;;;;11.78;10.18;;;;;;;27.01;66.49;98972.13;1755227;79;21175;-70
2021/07/05 07:14:20;;;;;;;14.10;11.83;;;;;;;27.02;66.61;98962.83;1759989;79;21061;-69
2021/07/05 07:16:52;;;;;;;12.37;11.15;;;;;;;27.05;66.76;98963.61;1786813;80;21120;-71
2021/07/05 07:19:17;;;;;;;10.08;9.28;;;;;;;27.07;66.86;98963.56;1783293;79;21014;-70
2021/07/05 07:21:49;;;;;;;10.20;9.03;;;;;;;27.10;66.95;98963.55;1755145;79;21075;-71
2021/07/05 07:24:17;;;;;;;9.35;8.53;;;;;;;27.16;66.88;98967.80;1756936;79;21123;-70
2021/07/05 07:26:43;;;;;;;9.65;8.75;;;;;;;27.25;66.54;98961.97;1774640;79;21016;-70
2021/07/05 07:29:10;;;;;;;10.10;9.10;;;;;;;27.29;66.48;98956.70;1776401;79;21088;-70
2021/07/05 07:31:39;;;;;;;9.85;9.03;;;;;;;27.32;66.46;98956.69;1777079;79;21020;-69
2021/07/05 07:34:06;;;;;;;10.10;8.23;;;;;;;27.35;66.48;98951.98;1755352;79;21000;-70
2021/07/05 07:36:33;;;;;;;12.18;8.30;;;;;;;27.38;66.57;98954.13;1755186;79;21149;-69
2021/07/05 07:39:05;;;;;;;9.25;8.45;;;;;;;27.42;66.56;98960.59;1771449;80;21077;-70
2021/07/05 07:41:31;;;;;;;10.10;8.38;;;;;;;27.44;66.55;98951.00;1759675;79;21598;-70
2021/07/05 07:43:58;;;;;;;11.63;8.83;;;;;;;27.48;66.62;98950.41;1755209;79;21009;-70
2021/07/05 07:46:25;;;;;;;11.20;8.85;;;;;;;27.52;66.53;98956.88;1757682;79;21052;-71
2021/07/05 07:48:53;;;;;;;9.28;8.48;;;;;;;27.54;66.45;98955.47;1774317;79;22335;-70
2021/07/05 07:51:20;;;;;;;9.35;8.53;;;;;;;27.58;66.59;98952.42;1754586;79;21076;-71
2021/07/05 07:53:48;;;;;;;12.07;8.00;;;;;;;27.62;66.82;98962.16;1758756;79;21280;-70
2021/07/05 07:56:14;;;;;;;9.28;8.38;;;;;;;27.63;66.38;98955.03;1773149;79;21056;-70
2021/07/05 07:58:41;;;;;;;8.95;8.15;;;;;;;27.67;66.41;98959.91;1756160;79;21110;-69
2021/07/05 08:01:08;;;;;;;8.80;7.60;;;;;;;27.71;66.18;98963.65;1775799;79;21121;-70
2021/07/05 08:03:35;;;;;;;8.33;7.53;;;;;;;27.73;66.07;98970.41;1755218;79;21027;-69
2021/07/05 08:06:03;;;;;;;9.33;8.20;;;;;;;27.77;66.07;98974.72;1763270;79;21090;-70
2021/07/05 08:10:05;;;;;;;10.40;7.92;;;;;;;27.85;65.68;98968.03;1839417;76;22564;-70
2021/07/05 08:12:31;;;;;;;8.38;7.53;;;;;;;27.81;65.57;98971.64;1787909;77;20977;-69
2021/07/05 08:14:58;;;;;;;10.25;8.20;;;;;;;27.85;65.38;98972.66;1826452;77;21470;-69
2021/07/05 08:17:24;;;;;;;8.33;7.55;;;;;;;27.88;65.07;98966.64;1793870;78;21563;-70
2021/07/05 08:19:52;;;;;;;10.58;7.58;;;;;;;27.91;64.85;98960.59;1797667;78;21564;-69
2021/07/05 08:22:20;;;;;;;11.33;8.00;;;;;;;27.94;64.73;98959.97;1797329;77;21056;-68
2021/07/05 08:24:49;;;;;;;8.90;7.35;;;;;;;27.98;64.65;98969.16;1794713;77;21600;-69
2021/07/05 08:27:15;;;;;;;7.72;7.00;;;;;;;28.01;64.30;98961.75;1826708;78;21107;-70
2021/07/05 08:29:42;;;;;;;16.00;8.58;;;;;;;28.05;63.93;98963.31;1826283;77;20992;-69
2021/07/05 08:32:08;;;;;;;19.98;8.88;;;;;;;28.08;63.58;98971.45;1826560;78;20969;-70
2021/07/05 08:34:34;;;;;;;15.38;9.08;;;;;;;28.11;63.09;98962.66;1821588;78;21564;-69
2021/07/05 08:37:02;;;;;;;18.87;8.15;;;;;;;28.14;62.70;98968.30;1800115;78;20994;-69
2021/07/05 08:39:28;;;;;;;18.20;8.30;;;;;;;28.17;62.14;98966.34;1795247;77;21133;-70
2021/07/05 08:41:55;;;;;;;9.63;7.42;;;;;;;28.20;61.62;98964.92;1826559;78;21017;-71
2021/07/05 08:44:21;;;;;;;11.00;7.65;;;;;;;28.23;60.79;98964.32;1826270;78;21053;-70
2021/07/05 08:46:49;;;;;;;11.93;7.17;;;;;;;28.27;60.45;98964.53;1795430;78;21544;-70
2021/07/05 08:49:17;;;;;;;8.93;6.75;;;;;;;28.30;60.13;98966.63;1810470;77;21024;-70
2021/07/05 08:51:44;;;;;;;14.87;7.53;;;;;;;28.32;59.64;98967.97;1782244;78;21298;-71
2021/07/05 08:54:10;;;;;;;8.25;6.15;;;;;;;28.35;59.16;98964.61;1813297;78;21567;-70
2021/07/05 08:56:37;;;;;;;8.73;6.03;;;;;;;28.38;58.83;98970.84;1807796;78;21062;-69
2021/07/05 08:59:03;;;;;;;7.35;6.33;;;;;;;28.41;58.81;98970.78;1818224;77;21075;-70
2021/07/05 09:01:30;;;;;;;7.05;6.42;;;;;;;28.44;58.47;98966.08;1803981;78;20994;-70
2021/07/05 09:03:56;;;;;;;15.95;6.30;;;;;;;28.46;58.50;98970.68;1822538;78;21103;-69
2021/07/05 09:06:24;;;;;;;6.95;6.12;;;;;;;28.50;58.58;98965.42;1799569;78;21001;-71
2021/07/05 09:09:12;;;;;;;10.08;6.50;;;;;;;28.51;58.47;98965.66;1802127;78;21063;-70
2021/07/05 09:11:48;;;;;;;6.58;5.97;;;;;;;28.53;58.30;98975.75;1802141;78;21030;-70
2021/07/05 09:14:18;;;;;;;7.92;6.05;;;;;;;28.54;58.23;98972.72;1830324;78;21060;-70
2021/07/05 09:16:48;;;;;;;9.40;7.03;;;;;;;28.55;58.22;98972.15;1819319;77;21075;-71
2021/07/05 09:19:30;;;;;;;10.63;6.37;;;;;;;28.56;58.12;98966.95;1801881;76;21031;-69
2021/07/05 09:21:59;;;;;;;6.75;6.12;;;;;;;28.59;58.03;98963.05;1818088;78;21068;-70
2021/07/05 09:24:39;;;;;;;6.12;5.50;;;;;;;28.62;57.76;98967.89;1834972;76;21505;-69
2021/07/05 09:27:25;;;;;;;5.78;4.95;;;;;;;28.63;57.83;98972.25;1817291;78;21533;-71
2021/07/05 09:29:51;;;;;;;6.35;5.78;;;;;;;28.66;57.58;98970.81;1825022;76;21109;-70
2021/07/05 09:32:29;;;;;;;6.12;4.75;;;;;;;28.69;57.43;98983.08;1801569;78;21063;-73
2021/07/05 09:34:58;;;;;;;6.97;5.28;;;;;;;28.71;57.54;98981.65;1833099;76;21096;-71
2021/07/05 09:37:32;;;;;;;;;;;;;;;28.74;57.42;98982.95;1807189;76;21664;-69
2021/07/05 09:40:05;;;;;;;;;;;;;;;28.75;57.52;98975.81;1782413;78;20443;-69
2021/07/05 09:42:47;;;;;;;5.95;5.35;;;;;;;28.73;57.35;98980.78;1814337;77;21786;-70
2021/07/05 09:45:36;;;;;;;5.85;5.35;;;;;;;28.71;57.57;98978.11;1764745;79;21519;-70
2021/07/05 09:48:27;;;;;;;11.53;5.45;;;;;;;28.75;57.41;98974.45;1801773;78;21083;-70
2021/07/05 09:51:04;;;;;;;7.55;5.67;;;;;;;28.80;57.38;98982.55;1811701;78;21031;-70
2021/07/05 09:53:34;;;;;;;5.85;5.25;;;;;;;28.85;57.24;98982.17;1801581;78;21090;-70
2021/07/05 09:56:26;;;;;;;7.35;5.40;;;;;;;28.87;56.87;98978.01;1813146;76;21091;-70
2021/07/05 09:58:59;;;;;;;6.25;5.65;;;;;;;28.92;56.66;98983.38;1824441;78;21576;-70
2021/07/05 10:01:45;;;;;;;5.20;4.72;;;;;;;28.98;56.74;98973.13;1801874;76;21488;-70
2021/07/05 10:04:27;;;;;;;6.40;5.80;;;;;;;29.04;56.74;98982.02;1824827;76;21043;-70
2021/07/05 10:06:56;;;;;;;;;;;;;;;29.08;56.67;98983.02;1804235;76;21058;-71
2021/07/05 10:09:39;;;;;;;6.45;5.80;;;;;;;29.12;56.53;98982.11;1798957;78;20171;-69
2021/07/05 10:12:19;;;;;;;6.47;5.75;;;;;;;29.11;56.75;98984.58;1796777;78;21067;-70
2021/07/05 10:15:11;;;;;;;6.03;5.42;;;;;;;29.17;56.78;98983.93;1739083;81;21068;-70
2021/07/05 10:17:42;;;;;;;6.15;5.53;;;;;;;29.22;56.82;98978.32;1739478;81;21086;-71
2021/07/05 10:20:15;;;;;;;5.60;5.17;;;;;;;29.28;56.37;98970.80;1739778;81;21068;-71
2021/07/05 10:22:43;;;;;;;5.85;5.15;;;;;;;29.34;56.16;98967.65;1739762;81;21202;-71
2021/07/05 10:25:10;;;;;;;6.92;5.58;;;;;;;29.39;56.24;98968.87;1739609;81;20998;-71
2021/07/05 10:27:36;;;;;;;5.53;5.12;;;;;;;29.46;56.10;98963.52;1739969;81;21557;-70
2021/07/05 10:30:06;;;;;;;6.35;5.65;;;;;;;29.51;55.95;98955.98;1739636;81;21033;-69
2021/07/05 10:32:32;;;;;;;6.17;5.58;;;;;;;29.58;55.85;98961.03;1739831;81;21066;-70
2021/07/05 10:34:59;;;;;;;7.15;5.50;;;;;;;29.65;55.49;98962.77;1739675;81;21074;-70
2021/07/05 10:37:55;;;;;;;8.53;5.85;;;;;;;29.71;55.17;98955.20;1739133;81;21066;-70
2021/07/05 10:40:24;;;;;;;7.05;5.80;;;;;;;29.77;54.85;98966.31;1739669;81;21053;-70
2021/07/05 10:42:57;;;;;;;7.33;5.80;;;;;;;29.83;54.66;98963.69;1739815;81;21011;-71
2021/07/05 10:45:27;;;;;;;10.60;6.08;;;;;;;29.88;54.59;98964.92;1739961;81;21007;-70
2021/07/05 10:47:55;;;;;;;7.55;5.70;;;;;;;29.94;54.59;98965.03;1739646;81;21123;-70
2021/07/05 10:50:45;;;;;;;7.70;5.65;;;;;;;30.01;54.53;98948.70;1736033;81;21124;-70
2021/07/05 10:53:19;;;;;;;10.45;6.03;;;;;;;30.07;54.44;98951.53;1739659;81;21042;-69
2021/07/05 10:55:50;;;;;;;6.15;5.37;;;;;;;30.13;54.17;98948.35;1739707;81;21062;-69
2021/07/05 10:58:28;;;;;;;6.10;5.50;;;;;;;30.19;54.08;98952.55;1739897;81;21081;-71
2021/07/05 11:01:03;;;;;;;6.25;5.60;;;;;;;30.26;53.92;98952.08;1739678;81;22039;-69
2021/07/05 11:03:44;;;;;;;7.10;5.20;;;;;;;30.31;53.84;98951.97;1739776;81;21031;-70
2021/07/05 11:06:28;;;;;;;6.87;5.28;;;;;;;30.36;53.45;98946.32;1750143;81;21113;-70
2021/07/05 11:08:56;;;;;;;5.75;5.25;;;;;;;30.41;53.14;98955.54;1739867;80;21120;-69
2021/07/05 11:11:32;;;;;;;8.50;6.20;;;;;;;30.44;52.86;98953.52;1759555;80;21033;-69
2021/07/05 11:14:21;;;;;;;6.55;5.25;;;;;;;30.49;52.88;98947.89;1776853;78;21144;-70
2021/07/05 11:17:08;;;;;;;6.03;5.15;;;;;;;30.53;52.87;98946.12;1747257;78;21063;-70
2021/07/05 11:19:50;;;;;;;5.90;5.40;;;;;;;30.58;52.90;98940.50;1756942;78;20973;-70
2021/07/05 11:22:25;;;;;;;6.12;5.42;;;;;;;30.62;52.82;98942.01;1749789;78;21561;-69
2021/07/05 11:24:59;;;;;;;5.85;5.25;;;;;;;30.64;52.61;98940.58;1765567;78;21065;-70
2021/07/05 11:27:37;;;;;;;5.72;5.22;;;;;;;30.67;52.34;98948.72;1778248;78;21940;-70
2021/07/05 11:30:20;;;;;;;5.85;5.35;;;;;;;30.67;52.04;98950.88;1762948;79;21797;-70
2021/07/05 11:32:59;;;;;;;6.25;5.67;;;;;;;30.68;51.90;98950.34;1737115;78;21171;-68
2021/07/05 11:35:45;;;;;;;8.05;5.87;;;;;;;30.67;51.60;98948.14;1758262;80;21073;-70
2021/07/05 11:38:43;;;;;;;7.28;5.10;;;;;;;30.69;51.37;98940.41;1773569;78;21592;-70
2021/07/05 11:41:24;;;;;;;5.42;5.03;;;;;;;30.71;51.38;98929.95;1777519;78;21153;-70
2021/07/05 11:44:03;;;;;;;5.12;4.47;;;;;;;30.75;51.31;98935.03;1752612;78;21002;-70